sensor_id;sensor_type;location;lat;lon;timestamp;pressure;altitude;pressure_sealevel;temperature;humidity
64889;BME280;51386;53.082;8.816;2023-07-29T00:01:42;100580.09;;;24.14;64.33
64889;BME280;51386;53.082;8.816;2023-07-29T00:04:09;100575.53;;;24.15;64.36
64889;BME280;51386;53.082;8.816;2023-07-29T00:06:36;100572.56;;;24.16;64.33
64889;BME280;51386;53.082;8.816;2023-07-29T00:09:04;100563.97;;;24.19;64.03
64889;BME280;51386;53.082;8.816;2023-07-29T00:11:31;100565.31;;;24.22;64.39
64889;BME280;51386;53.082;8.816;2023-07-29T00:14:01;100567.44;;;24.25;63.71
64889;BME280;51386;53.082;8.816;2023-07-29T00:16:29;100558.03;;;24.28;64.11
64889;BME280;51386;53.082;8.816;2023-07-29T00:18:56;100553.47;;;24.28;64.32
64889;BME280;51386;53.082;8.816;2023-07-29T00:21:23;100554.81;;;24.31;64.10
64889;BME280;51386;53.082;8.816;2023-07-29T00:23:50;100559.13;;;24.32;64.01
64889;BME280;51386;53.082;8.816;2023-07-29T00:26:17;100562.34;;;24.34;64.25
64889;BME280;51386;53.082;8.816;2023-07-29T00:28:44;100555.88;;;24.35;63.98
64889;BME280;51386;53.082;8.816;2023-07-29T00:31:12;100561.81;;;24.37;64.02
64889;BME280;51386;53.082;8.816;2023-07-29T00:33:39;100562.88;;;24.36;64.03
64889;BME280;51386;53.082;8.816;2023-07-29T00:36:06;100554.28;;;24.39;63.88
64889;BME280;51386;53.082;8.816;2023-07-29T00:38:33;100559.09;;;24.42;63.73
64889;BME280;51386;53.082;8.816;2023-07-29T00:41:02;100549.44;;;24.46;63.79
64889;BME280;51386;53.082;8.816;2023-07-29T00:43:29;100551.56;;;24.49;63.77
64889;BME280;51386;53.082;8.816;2023-07-29T00:45:57;100551.56;;;24.54;63.08
64889;BME280;51386;53.082;8.816;2023-07-29T00:48:27;100559.09;;;24.57;63.28
64889;BME280;51386;53.082;8.816;2023-07-29T00:50:55;100555.59;;;24.56;62.96
64889;BME280;51386;53.082;8.816;2023-07-29T00:53:22;100567.47;;;24.50;63.06
64889;BME280;51386;53.082;8.816;2023-07-29T00:55:49;100562.63;;;24.47;63.67
64889;BME280;51386;53.082;8.816;2023-07-29T00:58:16;100565.31;;;24.42;63.46
64889;BME280;51386;53.082;8.816;2023-07-29T01:00:43;100560.19;;;24.36;63.67
64889;BME280;51386;53.082;8.816;2023-07-29T01:03:11;100553.75;;;24.27;63.64
64889;BME280;51386;53.082;8.816;2023-07-29T01:05:50;100552.13;;;24.20;63.23
64889;BME280;51386;53.082;8.816;2023-07-29T01:08:38;100562.09;;;24.10;63.51
64889;BME280;51386;53.082;8.816;2023-07-29T01:11:27;100554.25;;;23.98;64.10
64889;BME280;51386;53.082;8.816;2023-07-29T01:14:05;100556.91;;;23.93;63.85
64889;BME280;51386;53.082;8.816;2023-07-29T01:16:41;100557.44;;;23.85;64.40
64889;BME280;51386;53.082;8.816;2023-07-29T01:19:25;100555.81;;;23.79;64.47
64889;BME280;51386;53.082;8.816;2023-07-29T01:21:59;100568.69;;;23.77;65.33
64889;BME280;51386;53.082;8.816;2023-07-29T01:24:28;100552.00;;;23.70;65.28
64889;BME280;51386;53.082;8.816;2023-07-29T01:26:55;100549.84;;;23.62;65.40
64889;BME280;51386;53.082;8.816;2023-07-29T01:29:22;100556.84;;;23.58;65.72
64889;BME280;51386;53.082;8.816;2023-07-29T01:31:54;100555.50;;;23.55;65.36
64889;BME280;51386;53.082;8.816;2023-07-29T01:34:29;100554.69;;;23.55;65.40
64889;BME280;51386;53.082;8.816;2023-07-29T01:36:59;100552.25;;;23.53;65.04
64889;BME280;51386;53.082;8.816;2023-07-29T01:39:33;100540.13;;;23.51;65.55
64889;BME280;51386;53.082;8.816;2023-07-29T01:42:03;100546.06;;;23.53;65.40
64889;BME280;51386;53.082;8.816;2023-07-29T01:44:31;100540.94;;;23.51;65.23
64889;BME280;51386;53.082;8.816;2023-07-29T01:46:59;100537.47;;;23.46;65.32
64889;BME280;51386;53.082;8.816;2023-07-29T01:49:26;100529.09;;;23.42;65.55
64889;BME280;51386;53.082;8.816;2023-07-29T01:51:54;100534.22;;;23.39;65.58
64889;BME280;51386;53.082;8.816;2023-07-29T01:54:21;100521.84;;;23.38;65.68
64889;BME280;51386;53.082;8.816;2023-07-29T01:56:49;100526.16;;;23.39;65.26
64889;BME280;51386;53.082;8.816;2023-07-29T01:59:17;100535.00;;;23.39;65.48
64889;BME280;51386;53.082;8.816;2023-07-29T02:01:44;100531.22;;;23.35;65.74
64889;BME280;51386;53.082;8.816;2023-07-29T02:08:19;100532.47;;;23.23;65.96
64889;BME280;51386;53.082;8.816;2023-07-29T02:10:46;100537.34;;;23.31;66.01
64889;BME280;51386;53.082;8.816;2023-07-29T02:13:14;100535.81;;;23.40;65.68
64889;BME280;51386;53.082;8.816;2023-07-29T02:15:41;100525.06;;;23.40;65.33
64889;BME280;51386;53.082;8.816;2023-07-29T02:18:08;100526.94;;;23.39;65.42
64889;BME280;51386;53.082;8.816;2023-07-29T02:20:35;100528.84;;;23.39;65.48
64889;BME280;51386;53.082;8.816;2023-07-29T02:23:02;100522.34;;;23.35;65.29
64889;BME280;51386;53.082;8.816;2023-07-29T02:25:29;100526.63;;;23.31;65.36
64889;BME280;51386;53.082;8.816;2023-07-29T02:27:56;100517.72;;;23.25;65.60
64889;BME280;51386;53.082;8.816;2023-07-29T02:30:25;100521.72;;;23.18;65.82
64889;BME280;51386;53.082;8.816;2023-07-29T02:32:52;100520.59;;;23.09;65.87
64889;BME280;51386;53.082;8.816;2023-07-29T02:35:19;100518.47;;;23.06;65.97
64889;BME280;51386;53.082;8.816;2023-07-29T02:37:46;100526.50;;;23.01;65.80
64889;BME280;51386;53.082;8.816;2023-07-29T02:40:13;100521.63;;;22.98;66.01
64889;BME280;51386;53.082;8.816;2023-07-29T02:42:40;100507.13;;;22.94;65.93
64889;BME280;51386;53.082;8.816;2023-07-29T02:45:08;100517.84;;;22.88;66.14
64889;BME280;51386;53.082;8.816;2023-07-29T02:47:38;100524.78;;;22.84;66.31
64889;BME280;51386;53.082;8.816;2023-07-29T02:50:06;100510.28;;;22.80;66.28
64889;BME280;51386;53.082;8.816;2023-07-29T02:52:33;100510.78;;;22.77;66.51
64889;BME280;51386;53.082;8.816;2023-07-29T02:55:00;100510.78;;;22.77;66.35
64889;BME280;51386;53.082;8.816;2023-07-29T02:57:27;100514.56;;;22.76;66.42
64889;BME280;51386;53.082;8.816;2023-07-29T02:59:54;100515.59;;;22.75;66.76
64889;BME280;51386;53.082;8.816;2023-07-29T03:02:21;100512.09;;;22.75;66.36
64889;BME280;51386;53.082;8.816;2023-07-29T03:04:50;100519.88;;;22.71;66.49
64889;BME280;51386;53.082;8.816;2023-07-29T03:07:17;100513.44;;;22.67;66.65
64889;BME280;51386;53.082;8.816;2023-07-29T03:09:44;100516.63;;;22.64;66.60
64889;BME280;51386;53.082;8.816;2023-07-29T03:12:12;100520.06;;;22.60;66.80
64889;BME280;51386;53.082;8.816;2023-07-29T03:14:39;100521.38;;;22.57;66.89
64889;BME280;51386;53.082;8.816;2023-07-29T03:17:08;100519.19;;;22.54;66.94
64889;BME280;51386;53.082;8.816;2023-07-29T03:19:35;100525.06;;;22.51;66.98
64889;BME280;51386;53.082;8.816;2023-07-29T03:22:03;100520.28;;;22.53;67.00
64889;BME280;51386;53.082;8.816;2023-07-29T03:24:30;100531.03;;;22.53;67.19
64889;BME280;51386;53.082;8.816;2023-07-29T03:26:57;100528.88;;;22.55;67.09
64889;BME280;51386;53.082;8.816;2023-07-29T03:29:24;100537.47;;;22.57;67.11
64889;BME280;51386;53.082;8.816;2023-07-29T03:31:51;100530.47;;;22.56;66.97
64889;BME280;51386;53.082;8.816;2023-07-29T03:34:18;100530.47;;;22.56;67.10
64889;BME280;51386;53.082;8.816;2023-07-29T03:36:45;100525.94;;;22.57;66.90
64889;BME280;51386;53.082;8.816;2023-07-29T03:39:15;100517.13;;;22.61;66.85
64889;BME280;51386;53.082;8.816;2023-07-29T03:41:42;100515.00;;;22.63;66.73
64889;BME280;51386;53.082;8.816;2023-07-29T03:44:09;100517.16;;;22.66;66.76
64889;BME280;51386;53.082;8.816;2023-07-29T03:46:36;100509.69;;;22.73;66.61
64889;BME280;51386;53.082;8.816;2023-07-29T03:49:04;100500.63;;;22.79;66.46
64889;BME280;51386;53.082;8.816;2023-07-29T03:51:31;100500.06;;;22.82;66.34
64889;BME280;51386;53.082;8.816;2023-07-29T03:53:58;100492.31;;;22.86;66.30
64889;BME280;51386;53.082;8.816;2023-07-29T03:56:26;100493.16;;;22.92;66.17
64889;BME280;51386;53.082;8.816;2023-07-29T03:59:02;100496.94;;;22.96;65.85
64889;BME280;51386;53.082;8.816;2023-07-29T04:01:29;100498.03;;;23.05;66.04
64889;BME280;51386;53.082;8.816;2023-07-29T04:03:56;100505.03;;;23.11;65.58
64889;BME280;51386;53.082;8.816;2023-07-29T04:06:23;100524.66;;;23.16;65.74
64889;BME280;51386;53.082;8.816;2023-07-29T04:08:50;100511.53;;;23.20;65.25
64889;BME280;51386;53.082;8.816;2023-07-29T04:11:17;100500.22;;;23.18;65.34
64889;BME280;51386;53.082;8.816;2023-07-29T04:13:45;100508.28;;;23.18;65.33
64889;BME280;51386;53.082;8.816;2023-07-29T04:16:12;100501.31;;;23.17;65.36
64889;BME280;51386;53.082;8.816;2023-07-29T04:18:40;100495.66;;;23.18;65.32
64889;BME280;51386;53.082;8.816;2023-07-29T04:21:07;100495.66;;;23.18;65.17
64889;BME280;51386;53.082;8.816;2023-07-29T04:23:34;100499.19;;;23.24;65.39
64889;BME280;51386;53.082;8.816;2023-07-29T04:26:02;100500.03;;;23.29;65.21
64889;BME280;51386;53.082;8.816;2023-07-29T04:28:28;100507.53;;;23.32;64.77
64889;BME280;51386;53.082;8.816;2023-07-29T04:30:57;100500.81;;;23.30;64.65
64889;BME280;51386;53.082;8.816;2023-07-29T04:33:24;100509.41;;;23.27;64.29
64889;BME280;51386;53.082;8.816;2023-07-29T04:35:51;100509.94;;;23.24;64.66
64889;BME280;51386;53.082;8.816;2023-07-29T04:38:18;100505.38;;;23.24;64.42
64889;BME280;51386;53.082;8.816;2023-07-29T04:40:45;100496.78;;;23.22;64.70
64889;BME280;51386;53.082;8.816;2023-07-29T04:43:12;100497.56;;;23.23;64.60
64889;BME280;51386;53.082;8.816;2023-07-29T04:45:42;100504.56;;;23.24;64.79
64889;BME280;51386;53.082;8.816;2023-07-29T04:48:11;100499.19;;;23.24;64.68
64889;BME280;51386;53.082;8.816;2023-07-29T04:50:38;100493.31;;;23.27;64.38
64889;BME280;51386;53.082;8.816;2023-07-29T04:53:05;100492.47;;;23.26;64.64
64889;BME280;51386;53.082;8.816;2023-07-29T04:55:32;100481.22;;;23.29;64.55
64889;BME280;51386;53.082;8.816;2023-07-29T04:57:59;100483.63;;;23.31;64.74
64889;BME280;51386;53.082;8.816;2023-07-29T05:00:27;100486.84;;;23.33;64.53
64889;BME280;51386;53.082;8.816;2023-07-29T05:02:53;100487.38;;;23.30;64.17
64889;BME280;51386;53.082;8.816;2023-07-29T05:05:22;100480.41;;;23.29;64.42
64889;BME280;51386;53.082;8.816;2023-07-29T05:07:49;100480.41;;;23.29;64.32
64889;BME280;51386;53.082;8.816;2023-07-29T05:10:16;100469.13;;;23.27;64.38
64889;BME280;51386;53.082;8.816;2023-07-29T05:12:43;100464.81;;;23.26;64.68
64889;BME280;51386;53.082;8.816;2023-07-29T05:15:10;100467.22;;;23.27;64.72
64889;BME280;51386;53.082;8.816;2023-07-29T05:17:37;100468.03;;;23.28;64.96
64889;BME280;51386;53.082;8.816;2023-07-29T05:20:07;100460.81;;;23.33;64.55
64889;BME280;51386;53.082;8.816;2023-07-29T05:22:35;100461.66;;;23.39;64.64
64889;BME280;51386;53.082;8.816;2023-07-29T05:25:03;100453.34;;;23.45;64.68
64889;BME280;51386;53.082;8.816;2023-07-29T05:27:30;100461.41;;;23.50;64.41
64889;BME280;51386;53.082;8.816;2023-07-29T05:29:57;100462.22;;;23.56;64.48
64889;BME280;51386;53.082;8.816;2023-07-29T05:32:24;100465.72;;;23.62;63.96
64889;BME280;51386;53.082;8.816;2023-07-29T05:34:51;100462.22;;;23.66;64.23
64889;BME280;51386;53.082;8.816;2023-07-29T05:37:18;100462.25;;;23.71;64.36
64889;BME280;51386;53.082;8.816;2023-07-29T05:39:47;100469.50;;;23.76;63.96
64889;BME280;51386;53.082;8.816;2023-07-29T05:42:14;100466.00;;;23.80;63.79
64889;BME280;51386;53.082;8.816;2023-07-29T05:44:41;100458.75;;;23.86;63.85
64889;BME280;51386;53.082;8.816;2023-07-29T05:47:08;100474.38;;;23.89;63.76
64889;BME280;51386;53.082;8.816;2023-07-29T05:49:35;100472.47;;;23.79;63.76
64889;BME280;51386;53.082;8.816;2023-07-29T05:52:02;100470.31;;;23.76;63.68
64889;BME280;51386;53.082;8.816;2023-07-29T05:54:29;100467.63;;;23.76;63.88
64889;BME280;51386;53.082;8.816;2023-07-29T05:56:58;100471.13;;;23.77;63.81
64889;BME280;51386;53.082;8.816;2023-07-29T05:59:25;100468.16;;;23.78;64.18
64889;BME280;51386;53.082;8.816;2023-07-29T06:01:52;100468.97;;;23.74;64.21
64889;BME280;51386;53.082;8.816;2023-07-29T06:04:19;100478.91;;;23.73;63.99
64889;BME280;51386;53.082;8.816;2023-07-29T06:06:46;100481.06;;;23.76;64.22
64889;BME280;51386;53.082;8.816;2023-07-29T06:09:13;100475.16;;;23.74;64.55
64889;BME280;51386;53.082;8.816;2023-07-29T06:11:40;100468.16;;;23.78;64.55
64889;BME280;51386;53.082;8.816;2023-07-29T06:14:08;100471.91;;;23.82;64.97
64889;BME280;51386;53.082;8.816;2023-07-29T06:16:35;100482.13;;;23.80;64.84
64889;BME280;51386;53.082;8.816;2023-07-29T06:19:03;100484.84;;;23.85;64.67
64889;BME280;51386;53.082;8.816;2023-07-29T06:21:30;100483.78;;;23.91;65.08
64889;BME280;51386;53.082;8.816;2023-07-29T06:23:57;100478.94;;;23.98;64.63
64889;BME280;51386;53.082;8.816;2023-07-29T06:26:24;100483.25;;;24.09;64.86
64889;BME280;51386;53.082;8.816;2023-07-29T06:28:51;100484.84;;;24.20;64.02
64889;BME280;51386;53.082;8.816;2023-07-29T06:31:19;100492.94;;;24.31;63.80
64889;BME280;51386;53.082;8.816;2023-07-29T06:33:46;100488.88;;;24.38;63.86
64889;BME280;51386;53.082;8.816;2023-07-29T06:36:13;100500.19;;;24.45;63.79
64889;BME280;51386;53.082;8.816;2023-07-29T06:38:40;100507.16;;;24.46;63.68
64889;BME280;51386;53.082;8.816;2023-07-29T06:41:08;100509.59;;;24.48;63.62
64889;BME280;51386;53.082;8.816;2023-07-29T06:43:38;100505.28;;;24.42;63.18
64889;BME280;51386;53.082;8.816;2023-07-29T06:46:06;100504.22;;;24.38;63.73
64889;BME280;51386;53.082;8.816;2023-07-29T06:48:34;100495.63;;;24.36;63.62
64889;BME280;51386;53.082;8.816;2023-07-29T06:51:01;100487.81;;;24.34;63.46
64889;BME280;51386;53.082;8.816;2023-07-29T06:53:29;100488.06;;;24.38;63.13
64889;BME280;51386;53.082;8.816;2023-07-29T06:56:00;100483.22;;;24.45;63.12
64889;BME280;51386;53.082;8.816;2023-07-29T06:58:27;100485.91;;;24.50;63.01
64889;BME280;51386;53.082;8.816;2023-07-29T07:00:54;100488.06;;;24.58;62.88
64889;BME280;51386;53.082;8.816;2023-07-29T07:03:23;100487.47;;;24.61;62.94
64889;BME280;51386;53.082;8.816;2023-07-29T07:05:52;100487.47;;;24.61;62.08
64889;BME280;51386;53.082;8.816;2023-07-29T07:08:19;100495.84;;;24.59;62.66
64889;BME280;51386;53.082;8.816;2023-07-29T07:10:47;100491.25;;;24.65;62.65
64889;BME280;51386;53.082;8.816;2023-07-29T07:13:14;100500.13;;;24.65;62.21
64889;BME280;51386;53.082;8.816;2023-07-29T07:15:41;100496.09;;;24.63;61.94
64889;BME280;51386;53.082;8.816;2023-07-29T07:18:08;100492.88;;;24.61;62.07
64889;BME280;51386;53.082;8.816;2023-07-29T07:20:36;100495.56;;;24.61;62.27
64889;BME280;51386;53.082;8.816;2023-07-29T07:23:05;100498.00;;;24.62;61.95
64889;BME280;51386;53.082;8.816;2023-07-29T07:25:38;100493.91;;;24.70;62.57
64889;BME280;51386;53.082;8.816;2023-07-29T07:28:05;100495.03;;;24.79;61.64
64889;BME280;51386;53.082;8.816;2023-07-29T07:30:32;100497.72;;;24.84;61.53
64889;BME280;51386;53.082;8.816;2023-07-29T07:32:59;100497.66;;;24.89;61.80
64889;BME280;51386;53.082;8.816;2023-07-29T07:35:26;100498.44;;;25.00;61.18
64889;BME280;51386;53.082;8.816;2023-07-29T07:37:53;100501.09;;;25.10;60.70
64889;BME280;51386;53.082;8.816;2023-07-29T07:40:21;100501.84;;;25.20;60.90
64889;BME280;51386;53.082;8.816;2023-07-29T07:42:48;100508.88;;;25.21;59.68
64889;BME280;51386;53.082;8.816;2023-07-29T07:45:15;100508.06;;;25.21;59.64
64889;BME280;51386;53.082;8.816;2023-07-29T07:47:44;100513.16;;;25.22;59.73
64889;BME280;51386;53.082;8.816;2023-07-29T07:50:11;100506.47;;;25.20;59.54
64889;BME280;51386;53.082;8.816;2023-07-29T07:52:38;100514.78;;;25.18;59.13
64889;BME280;51386;53.082;8.816;2023-07-29T07:55:06;100509.69;;;25.22;59.16
64889;BME280;51386;53.082;8.816;2023-07-29T07:57:36;100528.75;;;25.30;59.00
64889;BME280;51386;53.082;8.816;2023-07-29T08:00:05;100522.56;;;25.30;58.50
64889;BME280;51386;53.082;8.816;2023-07-29T08:02:32;100527.72;;;25.26;58.58
64889;BME280;51386;53.082;8.816;2023-07-29T08:04:59;100515.84;;;25.22;58.37
64889;BME280;51386;53.082;8.816;2023-07-29T08:07:26;100511.25;;;25.28;58.14
64889;BME280;51386;53.082;8.816;2023-07-29T08:09:53;100503.88;;;25.48;58.02
64889;BME280;51386;53.082;8.816;2023-07-29T08:12:20;100489.72;;;25.77;57.02
64889;BME280;51386;53.082;8.816;2023-07-29T08:14:48;100492.63;;;26.19;56.69
64889;BME280;51386;53.082;8.816;2023-07-29T08:17:15;100492.78;;;26.56;56.24
64889;BME280;51386;53.082;8.816;2023-07-29T08:19:42;100498.16;;;27.09;55.03
64889;BME280;51386;53.082;8.816;2023-07-29T08:22:09;100493.03;;;27.68;53.43
64889;BME280;51386;53.082;8.816;2023-07-29T08:24:36;100500.13;;;28.01;50.62
64889;BME280;51386;53.082;8.816;2023-07-29T08:27:04;100491.13;;;28.38;48.41
64889;BME280;51386;53.082;8.816;2023-07-29T08:29:31;100494.41;;;28.81;48.89
64889;BME280;51386;53.082;8.816;2023-07-29T08:31:59;100501.19;;;29.06;47.71
64889;BME280;51386;53.082;8.816;2023-07-29T08:34:26;100502.41;;;28.86;45.58
64889;BME280;51386;53.082;8.816;2023-07-29T08:36:53;100499.50;;;28.69;47.05
64889;BME280;51386;53.082;8.816;2023-07-29T08:39:20;100498.56;;;28.60;46.77
64889;BME280;51386;53.082;8.816;2023-07-29T08:41:55;100507.38;;;28.38;46.44
64889;BME280;51386;53.082;8.816;2023-07-29T08:44:30;100509.31;;;28.19;46.79
64889;BME280;51386;53.082;8.816;2023-07-29T08:46:59;100516.50;;;28.10;47.67
64889;BME280;51386;53.082;8.816;2023-07-29T08:49:27;100515.09;;;28.12;47.25
64889;BME280;51386;53.082;8.816;2023-07-29T08:51:58;100507.94;;;28.22;47.07
64889;BME280;51386;53.082;8.816;2023-07-29T08:54:25;100509.25;;;28.38;46.85
64889;BME280;51386;53.082;8.816;2023-07-29T08:56:53;100509.63;;;28.63;46.71
64889;BME280;51386;53.082;8.816;2023-07-29T08:59:21;100498.59;;;29.14;45.77
64889;BME280;51386;53.082;8.816;2023-07-29T09:01:48;100497.47;;;29.65;44.80
64889;BME280;51386;53.082;8.816;2023-07-29T09:04:17;100497.63;;;30.26;43.04
64889;BME280;51386;53.082;8.816;2023-07-29T09:06:47;100494.78;;;30.62;41.80
64889;BME280;51386;53.082;8.816;2023-07-29T09:09:16;100497.91;;;30.77;42.08
64889;BME280;51386;53.082;8.816;2023-07-29T09:11:44;100495.31;;;31.20;41.02
64889;BME280;51386;53.082;8.816;2023-07-29T09:14:11;100496.84;;;31.52;40.16
64889;BME280;51386;53.082;8.816;2023-07-29T09:16:40;100494.72;;;31.92;39.64
64889;BME280;51386;53.082;8.816;2023-07-29T09:19:08;100490.69;;;32.24;39.13
64889;BME280;51386;53.082;8.816;2023-07-29T09:21:39;100494.59;;;31.97;39.09
64889;BME280;51386;53.082;8.816;2023-07-29T09:24:07;100500.47;;;31.39;39.21
64889;BME280;51386;53.082;8.816;2023-07-29T09:26:35;100489.06;;;30.72;39.78
64889;BME280;51386;53.082;8.816;2023-07-29T09:29:03;100489.63;;;30.21;41.33
64889;BME280;51386;53.082;8.816;2023-07-29T09:31:30;100494.63;;;29.47;41.63
64889;BME280;51386;53.082;8.816;2023-07-29T09:33:59;100489.16;;;29.25;41.40
64889;BME280;51386;53.082;8.816;2023-07-29T09:36:29;100492.47;;;29.22;41.46
64889;BME280;51386;53.082;8.816;2023-07-29T09:38:59;100481.56;;;29.72;41.34
64889;BME280;51386;53.082;8.816;2023-07-29T09:41:27;100486.69;;;30.70;39.59
64889;BME280;51386;53.082;8.816;2023-07-29T09:44:01;100478.91;;;31.68;38.83
64889;BME280;51386;53.082;8.816;2023-07-29T09:46:33;100483.59;;;32.40;36.64
64889;BME280;51386;53.082;8.816;2023-07-29T09:49:03;100481.78;;;32.90;35.29
64889;BME280;51386;53.082;8.816;2023-07-29T09:51:31;100491.41;;;33.25;34.79
64889;BME280;51386;53.082;8.816;2023-07-29T09:54:03;100501.69;;;33.20;34.80
64889;BME280;51386;53.082;8.816;2023-07-29T09:56:31;100484.97;;;33.21;34.15
64889;BME280;51386;53.082;8.816;2023-07-29T09:58:58;100469.16;;;33.77;34.00
64889;BME280;51386;53.082;8.816;2023-07-29T10:01:25;100474.63;;;34.79;32.74
64889;BME280;51386;53.082;8.816;2023-07-29T10:03:54;100478.34;;;35.74;30.00
64889;BME280;51386;53.082;8.816;2023-07-29T10:06:24;100475.09;;;36.43;29.60
64889;BME280;51386;53.082;8.816;2023-07-29T10:08:52;100473.88;;;36.72;29.48
64889;BME280;51386;53.082;8.816;2023-07-29T10:11:21;100475.13;;;36.28;30.60
64889;BME280;51386;53.082;8.816;2023-07-29T10:13:49;100467.66;;;35.57;30.11
64889;BME280;51386;53.082;8.816;2023-07-29T10:16:36;100461.03;;;35.86;30.08
64889;BME280;51386;53.082;8.816;2023-07-29T10:19:04;100461.66;;;36.23;29.36
64889;BME280;51386;53.082;8.816;2023-07-29T10:21:32;100465.34;;;35.99;29.50
64889;BME280;51386;53.082;8.816;2023-07-29T10:24:05;100456.16;;;35.79;30.02
64889;BME280;51386;53.082;8.816;2023-07-29T10:26:36;100458.06;;;36.07;29.88
64889;BME280;51386;53.082;8.816;2023-07-29T10:29:13;100458.22;;;36.73;29.40
64889;BME280;51386;53.082;8.816;2023-07-29T10:31:43;100460.31;;;37.68;27.78
64889;BME280;51386;53.082;8.816;2023-07-29T10:34:12;100457.09;;;38.49;26.88
64889;BME280;51386;53.082;8.816;2023-07-29T10:36:40;100469.41;;;38.55;26.65
64889;BME280;51386;53.082;8.816;2023-07-29T10:39:08;100463.69;;;37.80;26.60
64889;BME280;51386;53.082;8.816;2023-07-29T10:41:59;100461.28;;;36.40;27.13
64889;BME280;51386;53.082;8.816;2023-07-29T10:44:47;100469.38;;;35.10;29.13
64889;BME280;51386;53.082;8.816;2023-07-29T10:47:19;100462.66;;;34.14;30.82
64889;BME280;51386;53.082;8.816;2023-07-29T10:49:49;100469.88;;;33.24;32.35
64889;BME280;51386;53.082;8.816;2023-07-29T10:52:30;100472.00;;;32.43;33.54
64889;BME280;51386;53.082;8.816;2023-07-29T10:54:58;100471.34;;;31.82;34.46
64889;BME280;51386;53.082;8.816;2023-07-29T10:57:35;100467.97;;;31.34;35.08
64889;BME280;51386;53.082;8.816;2023-07-29T11:00:05;100471.28;;;31.05;35.84
64889;BME280;51386;53.082;8.816;2023-07-29T11:02:35;100465.59;;;30.76;37.33
64889;BME280;51386;53.082;8.816;2023-07-29T11:05:06;100464.53;;;30.55;37.08
64889;BME280;51386;53.082;8.816;2023-07-29T11:07:44;100453.28;;;30.39;37.89
64889;BME280;51386;53.082;8.816;2023-07-29T11:10:13;100457.38;;;30.28;38.12
64889;BME280;51386;53.082;8.816;2023-07-29T11:12:47;100465.47;;;30.20;37.51
64889;BME280;51386;53.082;8.816;2023-07-29T11:15:18;100460.47;;;30.13;37.73
64889;BME280;51386;53.082;8.816;2023-07-29T11:17:48;100462.72;;;30.11;37.29
64889;BME280;51386;53.082;8.816;2023-07-29T11:20:17;100467.59;;;30.00;37.46
64889;BME280;51386;53.082;8.816;2023-07-29T11:22:45;100460.25;;;29.79;37.42
64889;BME280;51386;53.082;8.816;2023-07-29T11:25:14;100467.13;;;29.63;37.84
64889;BME280;51386;53.082;8.816;2023-07-29T11:27:41;100468.59;;;29.46;38.04
64889;BME280;51386;53.082;8.816;2023-07-29T11:30:12;100468.00;;;29.36;38.58
64889;BME280;51386;53.082;8.816;2023-07-29T11:32:42;100474.28;;;29.23;38.68
64889;BME280;51386;53.082;8.816;2023-07-29T11:35:11;100480.09;;;29.16;38.37
64889;BME280;51386;53.082;8.816;2023-07-29T11:37:40;100477.50;;;29.11;38.72
64889;BME280;51386;53.082;8.816;2023-07-29T11:40:09;100476.50;;;29.07;38.79
64889;BME280;51386;53.082;8.816;2023-07-29T11:42:37;100473.41;;;29.00;38.79
64889;BME280;51386;53.082;8.816;2023-07-29T11:45:07;100477.09;;;29.04;39.46
64889;BME280;51386;53.082;8.816;2023-07-29T11:47:36;100467.25;;;29.08;39.38
64889;BME280;51386;53.082;8.816;2023-07-29T11:50:06;100477.69;;;29.01;39.08
64889;BME280;51386;53.082;8.816;2023-07-29T11:52:34;100482.13;;;28.97;39.09
64889;BME280;51386;53.082;8.816;2023-07-29T11:55:03;100488.75;;;28.91;39.46
64889;BME280;51386;53.082;8.816;2023-07-29T11:57:30;100489.16;;;28.84;39.76
64889;BME280;51386;53.082;8.816;2023-07-29T11:59:58;100492.69;;;28.85;39.95
64889;BME280;51386;53.082;8.816;2023-07-29T12:02:26;100490.38;;;28.92;39.41
64889;BME280;51386;53.082;8.816;2023-07-29T12:04:55;100491.94;;;28.93;39.51
64889;BME280;51386;53.082;8.816;2023-07-29T12:07:24;100494.78;;;28.88;39.29
64889;BME280;51386;53.082;8.816;2023-07-29T12:09:52;100487.75;;;28.87;39.80
64889;BME280;51386;53.082;8.816;2023-07-29T12:12:22;100491.19;;;28.93;39.54
64889;BME280;51386;53.082;8.816;2023-07-29T12:14:49;100493.97;;;29.01;39.42
64889;BME280;51386;53.082;8.816;2023-07-29T12:17:18;100487.34;;;29.07;39.40
64889;BME280;51386;53.082;8.816;2023-07-29T12:19:45;100485.72;;;29.06;39.79
64889;BME280;51386;53.082;8.816;2023-07-29T12:22:19;100494.47;;;29.03;39.74
64889;BME280;51386;53.082;8.816;2023-07-29T12:24:46;100484.13;;;29.05;40.10
64889;BME280;51386;53.082;8.816;2023-07-29T12:27:14;100485.72;;;29.06;39.24
64889;BME280;51386;53.082;8.816;2023-07-29T12:29:44;100481.00;;;29.12;39.36
64889;BME280;51386;53.082;8.816;2023-07-29T12:32:13;100487.91;;;29.18;39.33
64889;BME280;51386;53.082;8.816;2023-07-29T12:34:41;100477.50;;;29.25;39.11
64889;BME280;51386;53.082;8.816;2023-07-29T12:37:08;100477.88;;;29.32;39.05
64889;BME280;51386;53.082;8.816;2023-07-29T12:39:41;100478.25;;;29.39;39.25
64889;BME280;51386;53.082;8.816;2023-07-29T12:42:09;100472.78;;;29.52;39.09
64889;BME280;51386;53.082;8.816;2023-07-29T12:44:38;100478.34;;;29.70;38.97
64889;BME280;51386;53.082;8.816;2023-07-29T12:47:06;100476.91;;;29.86;38.97
64889;BME280;51386;53.082;8.816;2023-07-29T12:49:33;100470.63;;;29.99;38.62
64889;BME280;51386;53.082;8.816;2023-07-29T12:52:00;100466.16;;;30.03;38.83
64889;BME280;51386;53.082;8.816;2023-07-29T12:54:27;100468.38;;;30.01;38.54
64889;BME280;51386;53.082;8.816;2023-07-29T12:56:56;100472.34;;;29.95;38.15
64889;BME280;51386;53.082;8.816;2023-07-29T12:59:23;100457.78;;;29.91;38.34
64889;BME280;51386;53.082;8.816;2023-07-29T13:01:50;100457.97;;;29.94;37.57